createdAt,value
2022-09-05T00:02:11.251Z,3.17
2022-09-05T00:04:48.125Z,3.60
2022-09-05T00:07:37.407Z,3.30
2022-09-05T00:10:20.781Z,2.95
2022-09-05T00:13:07.073Z,3.97
2022-09-05T00:15:48.032Z,3.92
2022-09-05T00:24:20.387Z,3.30
2022-09-05T00:24:25.894Z,3.63
2022-09-05T00:25:07.253Z,3.55
2022-09-05T00:27:43.658Z,3.50
2022-09-05T00:31:08.674Z,3.75
2022-09-05T00:33:26.325Z,3.33
2022-09-05T00:36:19.540Z,3.60
2022-09-05T00:38:57.576Z,3.90
2022-09-05T00:41:26.593Z,3.85
2022-09-05T00:43:57.784Z,4.25
2022-09-05T00:46:32.205Z,4.25
2022-09-05T00:49:18.346Z,3.58
2022-09-05T00:51:53.950Z,4.15
2022-09-05T00:54:45.999Z,3.90
2022-09-05T00:57:37.780Z,4.13
2022-09-05T01:00:17.942Z,4.32
2022-09-05T01:03:10.103Z,4.57
2022-09-05T01:06:03.172Z,4.28
2022-09-05T01:09:08.045Z,4.57
2022-09-05T01:12:01.890Z,4.72
2022-09-05T01:14:45.504Z,4.40
2022-09-05T01:17:36.445Z,4.05
2022-09-05T01:20:29.904Z,4.18
2022-09-05T01:23:31.691Z,4.55
2022-09-05T01:26:19.106Z,4.50
2022-09-05T01:29:16.145Z,4.40
2022-09-05T01:32:00.855Z,4.18
2022-09-05T01:34:35.204Z,3.90
2022-09-05T01:37:29.675Z,3.75
2022-09-05T01:40:17.406Z,4.22
2022-09-05T01:42:58.564Z,4.30
2022-09-05T01:45:41.933Z,4.03
2022-09-05T01:48:22.697Z,4.38
2022-09-05T01:51:02.391Z,4.28
2022-09-05T01:53:41.208Z,4.40
2022-09-05T01:56:26.626Z,4.03
2022-09-05T01:59:14.562Z,4.28
2022-09-05T02:02:02.961Z,4.95
2022-09-05T02:04:47.301Z,4.25
2022-09-05T02:07:31.673Z,4.18
2022-09-05T02:10:32.482Z,4.25
2022-09-05T02:13:14.164Z,4.03
2022-09-05T02:15:59.571Z,3.85
2022-09-05T02:18:46.561Z,4.00
2022-09-05T02:21:22.738Z,4.00
2022-09-05T02:24:03.468Z,4.40
2022-09-05T02:26:36.926Z,4.63
2022-09-05T02:29:28.891Z,4.97
2022-09-05T02:32:04.653Z,4.35
2022-09-05T02:34:41.749Z,4.30
2022-09-05T02:37:26.306Z,4.50
2022-09-05T02:45:07.529Z,4.72
2022-09-05T02:45:14.816Z,4.43
2022-09-05T02:46:14.842Z,4.85
2022-09-05T02:48:55.101Z,4.43
2022-09-05T02:57:27.930Z,4.80
2022-09-05T02:57:38.162Z,4.35
2022-09-05T02:58:05.265Z,4.60
2022-09-05T03:00:23.303Z,4.65
2022-09-05T03:03:18.629Z,4.47
2022-09-05T03:05:57.175Z,4.53
2022-09-05T03:08:45.256Z,4.65
2022-09-05T03:11:46.782Z,4.82
2022-09-05T03:14:59.251Z,5.05
2022-09-05T03:17:53.395Z,4.80
2022-09-05T03:21:09.496Z,4.50
2022-09-05T03:24:10.169Z,5.10
2022-09-05T03:27:10.433Z,4.35
2022-09-05T03:30:19.736Z,4.63
2022-09-05T03:33:33.201Z,4.78
2022-09-05T03:36:30.955Z,5.18
2022-09-05T03:39:31.697Z,5.50
2022-09-05T03:42:22.990Z,5.72
2022-09-05T03:45:07.332Z,5.25
2022-09-05T03:47:58.428Z,6.03
2022-09-05T03:57:11.072Z,6.35
2022-09-05T03:57:25.335Z,5.93
2022-09-05T03:57:41.398Z,6.82
2022-09-05T04:00:21.673Z,6.45
2022-09-05T04:08:06.136Z,6.68
2022-09-05T04:08:24.900Z,6.75
2022-09-05T04:08:52.337Z,6.20
2022-09-05T04:11:31.689Z,6.78
2022-09-05T04:14:06.639Z,6.30
2022-09-05T04:16:47.989Z,6.53
2022-09-05T04:19:22.701Z,6.32
2022-09-05T04:21:58.471Z,6.85
2022-09-05T04:24:31.638Z,7.10
2022-09-05T04:27:28.016Z,6.53
2022-09-05T04:30:04.984Z,6.90
2022-09-05T04:33:00.307Z,6.63
2022-09-05T04:35:37.631Z,7.10
2022-09-05T04:38:14.445Z,7.20
2022-09-05T04:40:49.842Z,7.20
2022-09-05T04:43:29.827Z,6.95
2022-09-05T04:46:09.782Z,8.02
2022-09-05T04:48:45.712Z,7.97
2022-09-05T04:52:00.192Z,7.00
2022-09-05T04:54:46.338Z,7.05
2022-09-05T04:57:22.695Z,7.63
2022-09-05T05:02:56.271Z,6.82
2022-09-05T05:06:16.274Z,7.53
2022-09-05T05:06:17.345Z,6.97
2022-09-05T05:08:51.157Z,6.95
2022-09-05T05:17:59.254Z,6.63
2022-09-05T05:17:59.476Z,6.57
2022-09-05T05:18:08.799Z,6.47
2022-09-05T05:20:40.127Z,6.72
2022-09-05T05:23:07.446Z,7.05
2022-09-05T05:25:48.743Z,6.30
2022-09-05T05:28:25.294Z,6.47
2022-09-05T05:31:01.679Z,6.65
2022-09-05T05:33:36.161Z,6.35
2022-09-05T05:36:10.593Z,6.95
2022-09-05T05:38:46.971Z,6.30
2022-09-05T05:41:23.822Z,6.50
2022-09-05T05:43:53.164Z,6.55
2022-09-05T05:46:35.230Z,6.47
2022-09-05T05:49:35.018Z,6.32
2022-09-05T05:52:31.876Z,5.57
2022-09-05T05:55:31.900Z,6.30
2022-09-05T05:58:15.466Z,5.88
2022-09-05T06:01:30.293Z,5.25
2022-09-05T06:04:45.211Z,5.53
2022-09-05T06:07:33.233Z,5.85
2022-09-05T06:14:51.284Z,6.03
2022-09-05T06:15:03.988Z,5.90
2022-09-05T06:17:12.610Z,5.95
2022-09-05T06:20:42.930Z,5.53
2022-09-05T06:23:39.570Z,6.03
2022-09-05T06:26:41.018Z,6.28
2022-09-05T06:29:15.123Z,6.60
2022-09-05T06:32:05.142Z,5.88
2022-09-05T06:35:00.766Z,6.50
2022-09-05T06:37:42.818Z,6.38
2022-09-05T06:40:19.362Z,6.38
2022-09-05T06:43:08.951Z,6.53
2022-09-05T06:45:48.151Z,6.40
2022-09-05T06:48:45.561Z,6.53
2022-09-05T06:51:37.745Z,6.10
2022-09-05T06:54:59.465Z,6.32
2022-09-05T06:57:57.163Z,5.72
2022-09-05T07:00:29.296Z,5.50
2022-09-05T07:03:19.954Z,6.50
2022-09-05T07:05:57.002Z,5.82
2022-09-05T07:08:35.864Z,5.97
2022-09-05T07:11:16.251Z,5.50
2022-09-05T07:13:57.924Z,5.75
2022-09-05T07:16:39.377Z,5.63
2022-09-05T07:19:27.634Z,5.18
2022-09-05T07:22:47.358Z,4.80
2022-09-05T07:25:17.966Z,5.03
2022-09-05T07:28:29.402Z,5.35
2022-09-05T07:30:52.017Z,4.82
2022-09-05T07:33:22.839Z,4.90
2022-09-05T07:35:52.491Z,4.90
2022-09-05T07:38:52.018Z,4.75
2022-09-05T07:41:23.561Z,4.93
2022-09-05T07:43:56.288Z,4.47
2022-09-05T07:46:30.025Z,4.55
2022-09-05T07:49:02.719Z,4.82
2022-09-05T07:56:53.933Z,5.20
2022-09-05T07:56:59.014Z,4.10
2022-09-05T07:57:30.241Z,4.32
2022-09-05T08:00:08.335Z,4.97
2022-09-05T08:02:56.579Z,4.10
2022-09-05T08:05:35.077Z,4.20
2022-09-05T08:08:11.731Z,4.53
2022-09-05T08:11:24.536Z,4.75
2022-09-05T08:14:44.263Z,4.85
2022-09-05T08:16:52.088Z,4.45
2022-09-05T08:19:50.195Z,3.60
2022-09-05T08:22:23.008Z,3.80
2022-09-05T08:25:00.572Z,4.72
2022-09-05T08:27:35.317Z,3.60
2022-09-05T08:30:24.916Z,4.05
2022-09-05T08:33:10.557Z,4.00
2022-09-05T08:35:50.052Z,4.05
2022-09-05T08:38:22.749Z,3.40
2022-09-05T08:41:00.207Z,3.67
2022-09-05T08:46:35.602Z,3.50
2022-09-05T08:46:44.007Z,2.72
2022-09-05T08:49:50.771Z,3.20
2022-09-05T08:52:31.506Z,3.33
2022-09-05T08:55:15.471Z,3.25
2022-09-05T08:58:07.470Z,3.40
2022-09-05T09:00:55.611Z,3.92
2022-09-05T09:03:39.366Z,3.60
2022-09-05T09:06:30.823Z,2.83
2022-09-05T09:09:13.337Z,2.35
2022-09-05T09:11:48.073Z,2.60
2022-09-05T09:14:38.730Z,7.95
2022-09-05T09:17:24.740Z,3.47
2022-09-05T09:20:10.666Z,2.97
2022-09-05T09:22:43.923Z,2.70
2022-09-05T09:25:18.445Z,2.70
2022-09-05T09:28:46.669Z,2.92
2022-09-05T09:31:23.001Z,3.00
2022-09-05T09:34:03.652Z,3.42
2022-09-05T09:36:59.194Z,3.15
2022-09-05T09:39:39.740Z,3.20
2022-09-05T09:42:32.614Z,3.65
2022-09-05T09:45:33.345Z,3.38
2022-09-05T09:48:27.650Z,3.10
2022-09-05T09:51:23.017Z,2.85
2022-09-05T09:54:05.769Z,3.03
2022-09-05T09:57:08.800Z,3.10
2022-09-05T09:59:55.021Z,4.03
2022-09-05T10:04:12.500Z,3.60
2022-09-05T10:10:40.259Z,3.63
2022-09-05T10:10:52.849Z,3.50
2022-09-05T10:12:39.073Z,3.85
2022-09-05T10:15:31.559Z,3.78
2022-09-05T10:18:37.421Z,3.58
2022-09-05T10:21:25.673Z,3.58
2022-09-05T10:24:24.079Z,3.75
2022-09-05T10:27:14.604Z,4.55
2022-09-05T10:29:47.054Z,4.85
2022-09-05T10:34:39.464Z,4.60
2022-09-05T10:35:23.755Z,4.35
2022-09-05T10:37:59.738Z,3.72
2022-09-05T10:41:08.106Z,3.55
2022-09-05T10:43:29.524Z,3.72
2022-09-05T10:46:07.577Z,3.97
2022-09-05T10:48:52.907Z,3.30
2022-09-05T10:51:29.625Z,3.17
2022-09-05T10:54:21.067Z,3.45
2022-09-05T10:56:53.144Z,3.22
2022-09-05T11:02:16.318Z,4.05
2022-09-05T11:02:33.538Z,3.50
2022-09-05T11:05:17.768Z,4.30
2022-09-05T11:07:54.621Z,3.75
2022-09-05T11:10:26.652Z,3.72
2022-09-05T11:13:11.902Z,3.45
2022-09-05T11:16:04.603Z,3.13
2022-09-05T11:18:56.239Z,3.22
2022-09-05T11:21:40.268Z,2.88
2022-09-05T11:24:18.648Z,3.20
2022-09-05T11:26:51.459Z,3.47
2022-09-05T11:29:43.397Z,3.72
2022-09-05T11:37:41.651Z,3.40
2022-09-05T11:39:47.884Z,3.35
2022-09-05T11:39:54.717Z,3.50
2022-09-05T11:42:18.009Z,2.92
2022-09-05T11:45:14.310Z,3.30
2022-09-05T11:48:14.280Z,3.70
2022-09-05T11:51:18.497Z,3.65
2022-09-05T11:54:12.362Z,4.38
2022-09-05T11:57:31.926Z,3.33
2022-09-05T12:00:31.923Z,4.00
2022-09-05T12:03:59.203Z,3.65
2022-09-05T12:06:59.576Z,2.85
2022-09-05T12:09:47.351Z,2.10
2022-09-05T12:12:41.698Z,2.50
2022-09-05T12:15:33.772Z,2.15
2022-09-05T12:18:24.224Z,2.17
2022-09-05T12:21:03.654Z,2.38
2022-09-05T12:24:13.893Z,2.30
2022-09-05T12:27:40.234Z,2.05
2022-09-05T12:29:46.773Z,2.10
2022-09-05T12:34:53.950Z,2.10
2022-09-05T12:36:11.065Z,2.25
2022-09-05T12:41:33.446Z,2.03
2022-09-05T12:41:42.950Z,2.22
2022-09-05T12:44:41.031Z,2.25
2022-09-05T12:47:16.703Z,2.40
2022-09-05T12:50:02.906Z,2.53
2022-09-05T12:52:42.717Z,2.50
2022-09-05T12:55:20.957Z,2.55
2022-09-05T13:02:55.016Z,2.45
2022-09-05T13:03:15.335Z,2.13
2022-09-05T13:04:06.008Z,2.15
2022-09-05T13:06:40.883Z,2.03
2022-09-05T13:09:19.480Z,1.92
2022-09-05T13:14:48.923Z,1.92
2022-09-05T13:15:11.514Z,1.75
2022-09-05T13:17:52.377Z,1.70
2022-09-05T13:20:34.042Z,1.70
2022-09-05T13:23:14.359Z,1.77
2022-09-05T13:25:44.981Z,1.50
2022-09-05T13:28:16.065Z,1.75
2022-09-05T13:37:55.687Z,1.80
2022-09-05T13:37:59.608Z,1.98
2022-09-05T13:38:17.982Z,1.77
2022-09-05T13:39:40.544Z,1.80
2022-09-05T13:42:17.243Z,1.70
2022-09-05T13:44:47.499Z,1.83
2022-09-05T13:47:30.713Z,1.80
2022-09-05T13:50:20.126Z,1.55
2022-09-05T13:52:54.821Z,1.83
2022-09-05T13:55:33.500Z,1.75
2022-09-05T13:58:07.265Z,1.80
2022-09-05T14:01:07.981Z,1.40
2022-09-05T14:07:46.127Z,1.58
2022-09-05T14:10:45.204Z,1.33
2022-09-05T14:13:19.231Z,1.48
2022-09-05T14:15:56.707Z,1.67
2022-09-05T14:18:27.919Z,1.80
2022-09-05T14:21:17.184Z,2.03
2022-09-05T14:23:56.009Z,1.40
2022-09-05T14:26:34.442Z,1.60
2022-09-05T14:29:15.774Z,1.33
2022-09-05T14:34:55.415Z,1.52
2022-09-05T14:37:48.702Z,1.77
2022-09-05T14:38:11.589Z,1.30
2022-09-05T14:41:15.908Z,1.27
2022-09-05T14:44:27.625Z,1.80
2022-09-05T14:47:32.573Z,1.60
2022-09-05T14:50:20.744Z,1.60
2022-09-05T14:56:47.742Z,1.65
2022-09-05T15:02:48.565Z,1.60
2022-09-05T15:02:54.383Z,1.60
2022-09-05T15:04:44.563Z,1.67
2022-09-05T15:07:19.923Z,1.40
2022-09-05T15:12:15.504Z,1.80
2022-09-05T15:12:52.081Z,1.83
2022-09-05T15:15:28.604Z,1.70
2022-09-05T15:18:02.049Z,1.60
2022-09-05T15:20:36.698Z,1.45
2022-09-05T15:23:16.273Z,1.67
2022-09-05T15:25:48.474Z,1.65
2022-09-05T15:28:22.291Z,1.60
2022-09-05T15:30:59.912Z,1.65
2022-09-05T15:33:31.726Z,1.85
2022-09-05T15:36:04.787Z,1.48
2022-09-05T15:38:46.679Z,1.65
2022-09-05T15:41:25.848Z,1.58
2022-09-05T15:44:09.271Z,1.60
2022-09-05T15:46:47.315Z,1.77
2022-09-05T15:49:31.827Z,1.70
2022-09-05T15:52:03.350Z,1.80
2022-09-05T15:54:38.366Z,1.50
2022-09-05T15:57:15.263Z,1.58
2022-09-05T15:59:49.084Z,1.80
2022-09-05T16:02:22.457Z,1.98
2022-09-05T16:10:27.871Z,1.75
2022-09-05T16:10:31.214Z,1.50
2022-09-05T16:11:07.067Z,1.83
2022-09-05T16:13:53.122Z,1.70
2022-09-05T16:23:11.715Z,1.60
2022-09-05T16:23:17.637Z,1.75
2022-09-05T16:23:27.098Z,1.88
2022-09-05T16:25:12.133Z,1.60
2022-09-05T16:27:52.679Z,1.83
2022-09-05T16:30:23.445Z,1.77
2022-09-05T16:32:56.841Z,1.52
2022-09-05T16:35:26.326Z,2.00
2022-09-05T16:38:03.370Z,1.80
2022-09-05T16:40:36.334Z,1.80
2022-09-05T16:43:08.713Z,1.85
2022-09-05T16:45:51.756Z,1.98
2022-09-05T16:48:36.529Z,1.65
2022-09-05T16:51:15.639Z,1.60
2022-09-05T16:53:58.884Z,1.70
2022-09-05T16:56:34.625Z,1.80
2022-09-05T16:59:08.328Z,1.70
2022-09-05T17:02:06.050Z,2.00
2022-09-05T17:05:03.508Z,1.80
2022-09-05T17:07:46.386Z,1.70
2022-09-05T17:10:20.083Z,1.70
2022-09-05T17:12:52.175Z,1.73
2022-09-05T17:15:23.757Z,2.15
2022-09-05T17:18:22.489Z,2.05
2022-09-05T17:20:51.751Z,2.20
2022-09-05T17:29:15.786Z,2.10
2022-09-05T17:29:33.327Z,2.03
2022-09-05T17:32:50.778Z,2.10
2022-09-05T17:35:42.179Z,4.60
2022-09-05T17:38:35.159Z,8.23
2022-09-05T17:41:35.535Z,8.80
2022-09-05T17:44:10.953Z,7.18
2022-09-05T17:46:51.181Z,6.07
2022-09-05T17:49:42.880Z,4.85
2022-09-05T17:52:20.854Z,4.20
2022-09-05T17:54:52.286Z,3.75
2022-09-05T17:57:50.823Z,3.50
2022-09-05T18:01:01.362Z,4.03
2022-09-05T18:04:17.892Z,11.77
2022-09-05T18:10:12.894Z,10.55
2022-09-05T18:13:13.625Z,13.77
2022-09-05T18:16:12.795Z,11.23
2022-09-05T18:19:32.681Z,8.00
2022-09-05T18:21:54.112Z,7.10
2022-09-05T18:24:33.481Z,8.50
2022-09-05T18:28:03.670Z,9.90
2022-09-05T18:30:06.655Z,7.78
2022-09-05T18:33:55.252Z,5.00
2022-09-05T18:36:33.380Z,3.70
2022-09-05T18:39:42.052Z,3.55
2022-09-05T18:42:33.634Z,3.28
2022-09-05T18:45:15.132Z,3.92
2022-09-05T18:47:51.202Z,8.50
2022-09-05T18:50:28.943Z,10.60
2022-09-05T18:53:10.215Z,7.60
2022-09-05T18:56:11.617Z,5.30
2022-09-05T18:58:51.869Z,4.50
2022-09-05T19:01:31.654Z,4.07
2022-09-05T19:04:06.816Z,4.05
2022-09-05T19:06:45.145Z,4.00
2022-09-05T19:09:26.830Z,4.40
2022-09-05T19:12:33.321Z,7.68
2022-09-05T19:14:56.793Z,6.93
2022-09-05T19:17:34.760Z,5.10
2022-09-05T19:20:32.555Z,4.55
2022-09-05T19:23:11.835Z,4.57
2022-09-05T19:25:43.570Z,4.13
2022-09-05T19:34:51.778Z,3.33
2022-09-05T19:36:53.518Z,3.10
2022-09-05T19:36:59.601Z,3.30
2022-09-05T19:42:49.515Z,3.15
2022-09-05T19:47:29.165Z,2.83
2022-09-05T19:47:49.713Z,2.90
2022-09-05T19:48:20.959Z,2.65
2022-09-05T19:50:49.552Z,2.45
2022-09-05T19:53:21.010Z,2.63
2022-09-05T19:55:49.515Z,2.97
2022-09-05T19:58:22.095Z,2.63
2022-09-05T20:01:02.542Z,2.75
2022-09-05T20:03:41.573Z,2.85
2022-09-05T20:06:29.617Z,2.75
2022-09-05T20:09:15.262Z,2.85
2022-09-05T20:11:49.420Z,2.60
2022-09-05T20:14:20.873Z,2.45
2022-09-05T20:16:49.791Z,2.78
2022-09-05T20:19:30.581Z,2.75
2022-09-05T20:22:24.589Z,2.97
2022-09-05T20:24:56.215Z,2.58
2022-09-05T20:27:28.245Z,2.60
2022-09-05T20:29:59.748Z,2.70
2022-09-05T20:32:38.576Z,2.50
2022-09-05T20:41:05.342Z,2.95
2022-09-05T20:43:18.114Z,2.90
2022-09-05T20:43:35.115Z,3.38
2022-09-05T20:43:53.664Z,3.45
2022-09-05T20:51:19.890Z,3.38
2022-09-05T20:54:14.690Z,3.50
2022-09-05T20:54:22.764Z,3.78
2022-09-05T20:55:38.341Z,3.80
2022-09-05T20:58:11.339Z,3.60
2022-09-05T21:01:15.684Z,3.97
2022-09-05T21:03:36.645Z,4.05
2022-09-05T21:06:12.874Z,3.40
2022-09-05T21:08:41.115Z,3.53
2022-09-05T21:11:09.253Z,3.80
2022-09-05T21:13:52.648Z,3.08
2022-09-05T21:16:23.780Z,3.88
2022-09-05T21:18:53.045Z,3.40
2022-09-05T21:21:29.240Z,3.70
2022-09-05T21:24:17.286Z,4.07
2022-09-05T21:26:49.235Z,3.97
2022-09-05T21:29:27.576Z,3.03
2022-09-05T21:32:04.054Z,3.78
2022-09-05T21:34:44.893Z,3.20
2022-09-05T21:37:15.875Z,3.58
2022-09-05T21:39:59.123Z,4.00
2022-09-05T21:47:33.281Z,3.80
2022-09-05T21:47:48.870Z,3.55
2022-09-05T21:48:10.514Z,3.28
2022-09-05T21:50:41.810Z,3.42
2022-09-05T21:57:50.653Z,3.28
2022-09-05T21:59:28.369Z,3.78
2022-09-05T21:59:33.665Z,4.18
2022-09-05T22:01:52.751Z,4.18
2022-09-05T22:04:22.075Z,4.30
2022-09-05T22:06:50.850Z,4.00
2022-09-05T22:09:20.126Z,3.60
2022-09-05T22:11:50.616Z,3.60
2022-09-05T22:14:19.365Z,3.20
2022-09-05T22:16:50.174Z,3.60
2022-09-05T22:19:33.995Z,3.40
2022-09-05T22:22:16.028Z,3.88
2022-09-05T22:24:48.567Z,3.70
2022-09-05T22:27:19.897Z,3.58
2022-09-05T22:29:50.658Z,3.83
2022-09-05T22:32:33.982Z,2.97
2022-09-05T22:35:15.710Z,3.45
2022-09-05T22:37:59.617Z,3.25
2022-09-05T22:40:29.700Z,3.90
2022-09-05T22:42:58.276Z,3.30
2022-09-05T22:45:26.524Z,2.85
2022-09-05T22:47:55.909Z,3.13
2022-09-05T22:50:24.637Z,3.10
2022-09-05T22:52:52.797Z,3.88
2022-09-05T22:55:20.850Z,3.97
2022-09-05T22:57:49.217Z,3.80
2022-09-05T23:00:17.306Z,3.10
2022-09-05T23:02:48.993Z,3.20
2022-09-05T23:05:21.300Z,3.90
2022-09-05T23:07:49.670Z,3.58
2022-09-05T23:10:18.304Z,3.83
2022-09-05T23:12:46.270Z,3.50
2022-09-05T23:15:14.881Z,3.40
2022-09-05T23:17:43.366Z,3.88
2022-09-05T23:20:12.254Z,3.50
2022-09-05T23:22:43.309Z,3.53
2022-09-05T23:25:11.776Z,3.63
2022-09-05T23:27:40.220Z,3.25
2022-09-05T23:30:09.510Z,3.78
2022-09-05T23:32:37.739Z,3.20
2022-09-05T23:35:06.294Z,3.17
2022-09-05T23:37:34.345Z,3.25
2022-09-05T23:40:04.303Z,3.72
2022-09-05T23:42:32.379Z,3.25
2022-09-05T23:45:00.688Z,3.30
2022-09-05T23:47:29.790Z,3.10
2022-09-05T23:49:57.885Z,3.47
2022-09-05T23:52:26.000Z,3.40
2022-09-05T23:54:53.963Z,3.42
2022-09-05T23:57:24.158Z,3.20
2022-09-05T23:59:52.854Z,3.40
